createdAt,value
2018-12-15T00:04:34.405Z,35.30
2018-12-15T00:09:43.182Z,25.67
2018-12-15T00:14:49.934Z,35.70
2018-12-15T00:19:55.733Z,31.30
2018-12-15T00:25:03.085Z,28.97
2018-12-15T00:30:10.795Z,30.97
2018-12-15T00:40:27.515Z,33.23
2018-12-15T00:45:33.628Z,30.20
2018-12-15T00:50:39.378Z,28.40
2018-12-15T00:55:45.412Z,26.93
2018-12-15T01:00:51.235Z,27.53
2018-12-15T01:05:58.043Z,34.53
2018-12-15T01:11:03.960Z,26.47
2018-12-15T01:16:10.016Z,29.93
2018-12-15T01:21:15.801Z,28.30
2018-12-15T01:26:25.566Z,36.57
2018-12-15T01:31:33.192Z,35.10
2018-12-15T01:36:39.048Z,34.17
2018-12-15T01:41:44.961Z,32.10
2018-12-15T01:47:00.118Z,34.27
2018-12-15T01:59:44.026Z,27.47
2018-12-15T02:04:50.918Z,27.87
2018-12-15T02:09:56.763Z,28.97
2018-12-15T02:15:02.650Z,38.73
2018-12-15T02:20:11.416Z,33.17
2018-12-15T02:25:17.307Z,33.37
2018-12-15T02:30:24.670Z,36.20
2018-12-15T02:35:32.165Z,37.43
2018-12-15T02:40:39.303Z,34.97
2018-12-15T02:45:47.331Z,43.03
2018-12-15T02:50:53.155Z,33.77
2018-12-15T02:55:59.035Z,38.03
2018-12-15T03:01:10.748Z,29.90
2018-12-15T03:06:16.636Z,26.53
2018-12-15T03:11:23.937Z,28.47
2018-12-15T03:16:29.995Z,30.60
2018-12-15T03:21:37.161Z,27.23
2018-12-15T03:26:43.959Z,27.53
2018-12-15T03:31:49.804Z,27.20
2018-12-15T03:36:55.585Z,28.27
2018-12-15T03:42:01.528Z,27.57
2018-12-15T03:47:07.299Z,30.97
2018-12-15T03:52:15.365Z,29.67
2018-12-15T03:57:23.183Z,31.00
2018-12-15T04:02:30.143Z,34.20
2018-12-15T04:07:36.991Z,33.43
2018-12-15T04:12:44.249Z,28.93
2018-12-15T04:17:50.195Z,28.30
2018-12-15T04:22:56.006Z,30.63
2018-12-15T04:28:01.778Z,29.00
2018-12-15T04:33:07.585Z,32.07
2018-12-15T04:38:17.763Z,36.97
2018-12-15T04:43:23.635Z,161.73
2018-12-15T04:48:38.165Z,170.07
2018-12-15T04:53:46.287Z,82.57
2018-12-15T04:58:53.465Z,102.40
2018-12-15T05:04:01.316Z,210.37
2018-12-15T05:09:07.770Z,115.70
2018-12-15T05:14:15.064Z,141.90
2018-12-15T05:19:20.874Z,154.10
2018-12-15T05:24:26.857Z,123.60
2018-12-15T05:29:33.547Z,113.97
2018-12-15T05:34:39.472Z,156.90
2018-12-15T05:39:48.823Z,88.73
2018-12-15T05:44:54.617Z,68.42
2018-12-15T05:50:02.847Z,118.43
2018-12-15T05:55:08.757Z,50.10
2018-12-15T06:00:14.721Z,58.05
2018-12-15T06:05:20.762Z,52.20
2018-12-15T06:10:26.550Z,51.70
2018-12-15T06:15:32.372Z,44.70
2018-12-15T06:20:39.524Z,48.77
2018-12-15T06:25:45.468Z,59.30
2018-12-15T06:30:51.266Z,80.90
2018-12-15T06:35:58.386Z,130.10
2018-12-15T06:41:04.182Z,92.80
2018-12-15T06:46:11.514Z,75.20
2018-12-15T06:51:20.788Z,66.40
2018-12-15T06:56:27.978Z,61.73
2018-12-15T07:01:34.946Z,58.93
2018-12-15T07:06:42.058Z,65.53
2018-12-15T07:11:48.113Z,53.90
2018-12-15T07:16:54.765Z,53.37
2018-12-15T07:22:00.567Z,66.67
2018-12-15T07:27:09.139Z,129.77
2018-12-15T07:32:15.926Z,216.27
2018-12-15T07:37:21.787Z,105.73
2018-12-15T07:42:31.331Z,111.00
2018-12-15T07:47:38.894Z,122.77
2018-12-15T07:52:44.925Z,138.50
2018-12-15T07:57:51.958Z,123.87
2018-12-15T08:02:58.780Z,145.33
2018-12-15T08:08:05.525Z,116.27
2018-12-15T08:13:15.696Z,203.07
2018-12-15T08:18:21.629Z,200.37
2018-12-15T08:23:31.371Z,211.53
2018-12-15T08:28:41.759Z,187.33
2018-12-15T08:33:50.734Z,151.63
2018-12-15T08:38:58.989Z,102.20
2018-12-15T08:44:06.397Z,94.83
2018-12-15T08:49:13.145Z,89.03
2018-12-15T08:54:19.078Z,536.55
2018-12-15T08:59:25.121Z,232.57
2018-12-15T09:04:31.077Z,110.10
2018-12-15T09:09:36.857Z,206.60
2018-12-15T09:14:43.779Z,363.37
2018-12-15T09:19:49.561Z,278.43
2018-12-15T09:24:56.735Z,96.80
2018-12-15T09:30:04.269Z,134.73
2018-12-15T09:35:10.747Z,97.82
2018-12-15T09:40:16.855Z,91.20
2018-12-15T09:45:23.684Z,116.17
2018-12-15T09:50:30.089Z,124.73
2018-12-15T09:55:36.235Z,87.33
2018-12-15T10:00:42.147Z,78.90
2018-12-15T10:05:56.872Z,140.23
2018-12-15T10:11:03.261Z,159.17
2018-12-15T10:16:11.095Z,91.87
2018-12-15T10:21:18.205Z,65.87
2018-12-15T10:26:24.111Z,61.87
2018-12-15T10:31:35.485Z,72.23
2018-12-15T10:36:42.416Z,69.07
2018-12-15T10:41:48.287Z,99.20
2018-12-15T10:46:54.447Z,164.93
2018-12-15T10:52:02.497Z,141.40
2018-12-15T10:57:08.431Z,155.50
2018-12-15T11:02:14.968Z,224.70
2018-12-15T11:07:22.270Z,187.20
2018-12-15T11:12:28.602Z,99.10
2018-12-15T11:17:34.787Z,114.60
2018-12-15T11:22:40.606Z,114.93
2018-12-15T11:27:46.310Z,81.90
2018-12-15T11:32:53.350Z,89.60
2018-12-15T11:38:00.349Z,103.20
2018-12-15T11:43:08.177Z,82.90
2018-12-15T11:48:16.667Z,89.07
2018-12-15T11:53:22.676Z,113.63
2018-12-15T11:58:29.700Z,76.77
2018-12-15T12:03:35.548Z,123.13
2018-12-15T12:08:41.452Z,102.80
2018-12-15T12:13:47.290Z,92.60
2018-12-15T12:18:53.982Z,112.47
2018-12-15T12:24:00.793Z,99.03
2018-12-15T12:29:08.996Z,73.57
2018-12-15T12:34:16.043Z,67.70
2018-12-15T12:39:22.883Z,80.40
2018-12-15T12:44:32.334Z,94.60
2018-12-15T12:49:38.516Z,94.23
2018-12-15T12:54:45.596Z,109.07
2018-12-15T12:59:54.053Z,93.67
2018-12-15T13:05:00.288Z,102.87
2018-12-15T13:10:06.858Z,153.83
2018-12-15T13:15:12.786Z,122.33
2018-12-15T13:20:20.635Z,114.87
2018-12-15T13:25:27.422Z,159.83
2018-12-15T13:30:33.186Z,104.67
2018-12-15T13:35:39.114Z,113.53
2018-12-15T13:40:44.947Z,127.00
2018-12-15T13:45:50.747Z,119.83
2018-12-15T13:50:57.538Z,126.50
2018-12-15T13:56:06.311Z,113.77
2018-12-15T14:01:13.273Z,102.65
2018-12-15T14:06:20.008Z,109.53
2018-12-15T14:11:25.824Z,108.43
2018-12-15T14:16:33.194Z,128.03
2018-12-15T14:21:41.476Z,144.47
2018-12-15T14:26:47.278Z,98.63
2018-12-15T14:31:53.081Z,93.27
2018-12-15T14:36:59.387Z,62.53
2018-12-15T14:42:05.983Z,69.35
2018-12-15T14:47:12.166Z,76.33
2018-12-15T14:52:18.885Z,92.13
2018-12-15T14:57:26.656Z,99.20
2018-12-15T15:02:32.512Z,82.70
2018-12-15T15:07:38.226Z,108.27
2018-12-15T15:12:44.116Z,150.30
2018-12-15T15:17:49.947Z,110.00
2018-12-15T15:22:55.764Z,100.57
2018-12-15T15:28:01.928Z,196.10
2018-12-15T15:33:08.722Z,163.03
2018-12-15T15:38:14.516Z,118.77
2018-12-15T15:43:23.268Z,167.90
2018-12-15T15:48:33.929Z,102.80
2018-12-15T15:53:39.869Z,95.23
2018-12-15T15:58:45.756Z,119.53
2018-12-15T16:03:51.609Z,109.00
2018-12-15T16:08:57.436Z,79.85
2018-12-15T16:14:03.483Z,106.97
2018-12-15T16:19:10.450Z,81.67
2018-12-15T16:24:20.594Z,75.83
2018-12-15T16:29:26.397Z,78.67
2018-12-15T16:34:32.185Z,86.93
2018-12-15T16:39:37.979Z,85.97
2018-12-15T16:44:45.540Z,74.67
2018-12-15T16:49:53.867Z,80.15
2018-12-15T16:55:00.439Z,79.50
2018-12-15T17:00:13.328Z,97.53
2018-12-15T17:05:20.843Z,183.23
2018-12-15T17:10:29.881Z,120.60
2018-12-15T17:15:36.749Z,145.50
2018-12-15T17:20:45.318Z,142.47
2018-12-15T17:25:51.290Z,120.47
2018-12-15T17:30:57.275Z,95.97
2018-12-15T17:36:03.648Z,94.43
2018-12-15T17:41:14.495Z,107.30
2018-12-15T17:46:25.166Z,144.80
2018-12-15T17:51:36.096Z,107.40
2018-12-15T17:56:42.004Z,97.30
2018-12-15T18:01:47.798Z,102.53
2018-12-15T18:06:53.775Z,104.87
2018-12-15T18:12:00.055Z,106.30
2018-12-15T18:17:06.154Z,97.93
2018-12-15T18:22:12.008Z,83.97
2018-12-15T18:27:17.911Z,88.47
2018-12-15T18:32:24.741Z,85.70
2018-12-15T18:37:30.820Z,77.60
2018-12-15T18:42:37.492Z,67.00
2018-12-15T18:47:43.435Z,78.73
2018-12-15T18:52:50.448Z,70.08
2018-12-15T18:57:56.378Z,85.50
2018-12-15T19:03:02.201Z,113.63
2018-12-15T19:08:08.200Z,130.57
2018-12-15T19:13:14.144Z,70.87
2018-12-15T19:18:24.020Z,80.23
2018-12-15T19:23:30.780Z,64.40
2018-12-15T19:28:37.251Z,59.73
2018-12-15T19:33:43.190Z,71.57
2018-12-15T19:38:49.434Z,76.73
2018-12-15T19:43:55.467Z,59.53
2018-12-15T19:49:01.291Z,107.67
2018-12-15T19:54:07.217Z,65.43
2018-12-15T19:59:14.906Z,68.93
2018-12-15T20:04:20.946Z,74.90
2018-12-15T20:09:27.877Z,81.30
2018-12-15T20:14:33.794Z,78.13
2018-12-15T20:19:39.895Z,72.23
2018-12-15T20:24:47.441Z,76.07
2018-12-15T20:29:54.491Z,100.23
2018-12-15T20:35:00.341Z,74.07
2018-12-15T20:40:09.252Z,82.17
2018-12-15T20:45:15.123Z,72.00
2018-12-15T20:50:21.192Z,87.47
2018-12-15T20:55:29.024Z,86.07
2018-12-15T21:00:36.953Z,88.50
2018-12-15T21:05:43.102Z,95.00
2018-12-15T21:10:49.971Z,81.80
2018-12-15T21:16:02.427Z,73.83
2018-12-15T21:21:09.026Z,75.77
2018-12-15T21:26:17.277Z,74.07
2018-12-15T21:31:26.344Z,83.70
2018-12-15T21:36:36.125Z,77.70
2018-12-15T21:41:44.588Z,74.03
2018-12-15T21:46:50.443Z,67.30
2018-12-15T21:51:56.598Z,81.70
2018-12-15T21:57:02.471Z,84.73
2018-12-15T22:02:15.153Z,76.70
2018-12-15T22:07:21.000Z,123.07
2018-12-15T22:12:27.794Z,128.30
2018-12-15T22:17:33.652Z,118.23
2018-12-15T22:22:40.822Z,86.17
2018-12-15T22:27:46.688Z,98.97
2018-12-15T22:32:53.921Z,219.73
2018-12-15T22:37:59.756Z,151.97
2018-12-15T22:43:05.907Z,139.30
2018-12-15T22:48:11.712Z,88.33
2018-12-15T22:53:19.762Z,198.57
2018-12-15T22:58:25.578Z,114.70
2018-12-15T23:03:31.508Z,105.43
2018-12-15T23:08:37.311Z,66.37
2018-12-15T23:13:43.196Z,87.00
2018-12-15T23:18:49.052Z,58.37
2018-12-15T23:23:54.968Z,67.30
2018-12-15T23:29:01.825Z,66.37
2018-12-15T23:34:09.758Z,84.07
2018-12-15T23:39:17.515Z,133.90
2018-12-15T23:44:24.469Z,96.63
2018-12-15T23:49:31.345Z,122.60
2018-12-15T23:54:37.703Z,168.00
2018-12-15T23:59:45.110Z,119.33
